sensor_id;sensor_type;location;lat;lon;timestamp;temperature;humidity
16388;DHT22;8303;53.446;9.988;2023-02-12T05:46:41;7.00;99.90
16388;DHT22;8303;53.446;9.988;2023-02-12T05:49:09;7.00;99.90
16388;DHT22;8303;53.446;9.988;2023-02-12T05:51:37;7.00;99.90
16388;DHT22;8303;53.446;9.988;2023-02-12T05:54:05;7.00;99.90
16388;DHT22;8303;53.446;9.988;2023-02-12T05:56:33;7.10;99.90
16388;DHT22;8303;53.446;9.988;2023-02-12T05:59:02;7.00;99.90
16388;DHT22;8303;53.446;9.988;2023-02-12T06:01:31;7.10;99.90
16388;DHT22;8303;53.446;9.988;2023-02-12T06:04:00;7.10;99.90
16388;DHT22;8303;53.446;9.988;2023-02-12T06:06:29;7.00;99.90
16388;DHT22;8303;53.446;9.988;2023-02-12T06:08:57;7.10;99.90
16388;DHT22;8303;53.446;9.988;2023-02-12T06:11:25;7.10;99.90
16388;DHT22;8303;53.446;9.988;2023-02-12T06:13:52;7.00;99.90
16388;DHT22;8303;53.446;9.988;2023-02-12T06:16:22;7.10;99.90
16388;DHT22;8303;53.446;9.988;2023-02-12T06:18:50;7.10;99.90
16388;DHT22;8303;53.446;9.988;2023-02-12T06:21:19;7.00;99.90
16388;DHT22;8303;53.446;9.988;2023-02-12T06:23:46;7.10;99.90
16388;DHT22;8303;53.446;9.988;2023-02-12T06:26:14;7.00;99.90
16388;DHT22;8303;53.446;9.988;2023-02-12T06:28:41;7.10;99.90
16388;DHT22;8303;53.446;9.988;2023-02-12T06:31:17;7.10;99.90
16388;DHT22;8303;53.446;9.988;2023-02-12T06:33:44;7.00;99.90
16388;DHT22;8303;53.446;9.988;2023-02-12T06:36:11;7.10;99.90
16388;DHT22;8303;53.446;9.988;2023-02-12T06:38:40;7.10;99.90
16388;DHT22;8303;53.446;9.988;2023-02-12T06:41:07;7.10;99.90
16388;DHT22;8303;53.446;9.988;2023-02-12T06:43:34;7.10;99.90
16388;DHT22;8303;53.446;9.988;2023-02-12T06:46:01;7.10;99.90
16388;DHT22;8303;53.446;9.988;2023-02-12T06:48:29;7.10;99.90
16388;DHT22;8303;53.446;9.988;2023-02-12T06:51:02;7.10;99.90
16388;DHT22;8303;53.446;9.988;2023-02-12T06:53:29;7.10;99.90
16388;DHT22;8303;53.446;9.988;2023-02-12T06:55:59;7.10;99.90
16388;DHT22;8303;53.446;9.988;2023-02-12T06:58:26;7.10;99.90
16388;DHT22;8303;53.446;9.988;2023-02-12T07:00:53;7.10;99.90
16388;DHT22;8303;53.446;9.988;2023-02-12T07:03:20;7.10;99.90
16388;DHT22;8303;53.446;9.988;2023-02-12T07:05:48;7.10;99.90
16388;DHT22;8303;53.446;9.988;2023-02-12T07:08:15;7.10;99.90
16388;DHT22;8303;53.446;9.988;2023-02-12T07:10:42;7.20;99.90
16388;DHT22;8303;53.446;9.988;2023-02-12T07:13:10;7.30;99.90
16388;DHT22;8303;53.446;9.988;2023-02-12T07:15:38;7.30;99.90
16388;DHT22;8303;53.446;9.988;2023-02-12T07:18:05;7.30;99.90
16388;DHT22;8303;53.446;9.988;2023-02-12T07:20:32;7.40;99.90
16388;DHT22;8303;53.446;9.988;2023-02-12T07:22:59;7.30;99.90
16388;DHT22;8303;53.446;9.988;2023-02-12T07:25:26;7.30;99.90
16388;DHT22;8303;53.446;9.988;2023-02-12T07:27:53;7.30;99.90
16388;DHT22;8303;53.446;9.988;2023-02-12T07:30:22;7.50;99.90
16388;DHT22;8303;53.446;9.988;2023-02-12T07:32:49;7.40;99.90
16388;DHT22;8303;53.446;9.988;2023-02-12T07:35:16;7.40;99.90
16388;DHT22;8303;53.446;9.988;2023-02-12T07:37:43;7.40;99.90
16388;DHT22;8303;53.446;9.988;2023-02-12T07:40:10;7.50;99.90
16388;DHT22;8303;53.446;9.988;2023-02-12T07:42:37;7.50;99.90
16388;DHT22;8303;53.446;9.988;2023-02-12T07:45:05;7.60;99.90
16388;DHT22;8303;53.446;9.988;2023-02-12T07:47:33;7.60;99.90
16388;DHT22;8303;53.446;9.988;2023-02-12T07:50:04;7.70;99.90
16388;DHT22;8303;53.446;9.988;2023-02-12T07:52:32;7.70;99.90
16388;DHT22;8303;53.446;9.988;2023-02-12T07:54:59;7.80;99.90
16388;DHT22;8303;53.446;9.988;2023-02-12T07:57:26;7.80;99.90
16388;DHT22;8303;53.446;9.988;2023-02-12T07:59:53;7.80;99.90
16388;DHT22;8303;53.446;9.988;2023-02-12T08:02:20;7.70;99.90
16388;DHT22;8303;53.446;9.988;2023-02-12T08:04:54;7.80;99.90
16388;DHT22;8303;53.446;9.988;2023-02-12T08:07:21;7.80;99.90
16388;DHT22;8303;53.446;9.988;2023-02-12T08:09:49;7.80;99.90
16388;DHT22;8303;53.446;9.988;2023-02-12T08:12:16;7.90;99.90
16388;DHT22;8303;53.446;9.988;2023-02-12T08:14:43;7.90;99.90
16388;DHT22;8303;53.446;9.988;2023-02-12T08:17:10;7.90;99.90
16388;DHT22;8303;53.446;9.988;2023-02-12T08:19:37;7.90;99.90
16388;DHT22;8303;53.446;9.988;2023-02-12T08:22:06;7.90;99.90
16388;DHT22;8303;53.446;9.988;2023-02-12T08:24:33;7.80;99.90
16388;DHT22;8303;53.446;9.988;2023-02-12T08:27:00;7.80;99.90
16388;DHT22;8303;53.446;9.988;2023-02-12T08:29:28;7.80;99.90
16388;DHT22;8303;53.446;9.988;2023-02-12T08:31:58;7.80;99.90
16388;DHT22;8303;53.446;9.988;2023-02-12T08:34:27;7.80;99.90
16388;DHT22;8303;53.446;9.988;2023-02-12T08:36:55;7.90;99.90
16388;DHT22;8303;53.446;9.988;2023-02-12T08:39:25;7.90;99.90
16388;DHT22;8303;53.446;9.988;2023-02-12T08:41:53;7.90;99.90
16388;DHT22;8303;53.446;9.988;2023-02-12T08:44:20;8.00;99.90
16388;DHT22;8303;53.446;9.988;2023-02-12T08:46:49;8.10;99.90
16388;DHT22;8303;53.446;9.988;2023-02-12T08:49:18;8.10;99.90
16388;DHT22;8303;53.446;9.988;2023-02-12T08:51:47;8.10;99.90
16388;DHT22;8303;53.446;9.988;2023-02-12T08:54:16;8.10;99.90
16388;DHT22;8303;53.446;9.988;2023-02-12T08:56:45;8.20;99.90
16388;DHT22;8303;53.446;9.988;2023-02-12T08:59:13;8.30;99.90
16388;DHT22;8303;53.446;9.988;2023-02-12T09:01:41;8.30;51.30
16388;DHT22;8303;53.446;9.988;2023-02-12T09:04:13;8.40;22.20
16388;DHT22;8303;53.446;9.988;2023-02-12T09:06:42;8.60;28.40
16388;DHT22;8303;53.446;9.988;2023-02-12T09:09:10;8.60;52.70
16388;DHT22;8303;53.446;9.988;2023-02-12T09:11:37;8.60;1.00
16388;DHT22;8303;53.446;9.988;2023-02-12T09:14:11;8.60;1.00
16388;DHT22;8303;53.446;9.988;2023-02-12T09:16:38;8.60;1.00
16388;DHT22;8303;53.446;9.988;2023-02-12T09:19:06;8.50;1.00
16388;DHT22;8303;53.446;9.988;2023-02-12T09:21:33;8.50;1.00
16388;DHT22;8303;53.446;9.988;2023-02-12T09:24:00;8.90;1.00
16388;DHT22;8303;53.446;9.988;2023-02-12T09:26:28;8.80;1.00
16388;DHT22;8303;53.446;9.988;2023-02-12T09:28:55;8.70;1.00
16388;DHT22;8303;53.446;9.988;2023-02-12T09:31:25;8.60;1.00
16388;DHT22;8303;53.446;9.988;2023-02-12T09:33:54;8.80;1.00
16388;DHT22;8303;53.446;9.988;2023-02-12T09:36:21;9.00;1.00
16388;DHT22;8303;53.446;9.988;2023-02-12T09:38:48;9.00;1.00
16388;DHT22;8303;53.446;9.988;2023-02-12T09:41:45;9.00;1.00
16388;DHT22;8303;53.446;9.988;2023-02-12T09:44:20;9.00;1.00
16388;DHT22;8303;53.446;9.988;2023-02-12T09:46:53;8.90;1.00
16388;DHT22;8303;53.446;9.988;2023-02-12T09:49:39;8.90;1.00
16388;DHT22;8303;53.446;9.988;2023-02-12T09:52:14;8.90;1.00
16388;DHT22;8303;53.446;9.988;2023-02-12T09:54:42;9.00;1.00
16388;DHT22;8303;53.446;9.988;2023-02-12T09:57:15;9.10;1.00
16388;DHT22;8303;53.446;9.988;2023-02-12T09:59:47;9.20;1.00
16388;DHT22;8303;53.446;9.988;2023-02-12T10:02:19;9.20;99.90
16388;DHT22;8303;53.446;9.988;2023-02-12T10:04:48;9.10;99.90
16388;DHT22;8303;53.446;9.988;2023-02-12T10:07:24;9.10;99.90
16388;DHT22;8303;53.446;9.988;2023-02-12T10:10:17;9.20;99.90
16388;DHT22;8303;53.446;9.988;2023-02-12T10:12:52;9.30;99.90
16388;DHT22;8303;53.446;9.988;2023-02-12T10:15:31;9.20;99.90
16388;DHT22;8303;53.446;9.988;2023-02-12T10:18:18;9.30;99.90
16388;DHT22;8303;53.446;9.988;2023-02-12T10:20:51;9.30;99.90
16388;DHT22;8303;53.446;9.988;2023-02-12T10:23:39;9.30;99.90
16388;DHT22;8303;53.446;9.988;2023-02-12T10:26:18;9.20;99.90
16388;DHT22;8303;53.446;9.988;2023-02-12T10:28:46;9.10;99.90
16388;DHT22;8303;53.446;9.988;2023-02-12T10:31:18;9.00;99.90
16388;DHT22;8303;53.446;9.988;2023-02-12T10:33:51;8.90;99.90
16388;DHT22;8303;53.446;9.988;2023-02-12T10:36:30;8.90;99.90
16388;DHT22;8303;53.446;9.988;2023-02-12T10:39:03;8.90;99.90
16388;DHT22;8303;53.446;9.988;2023-02-12T10:41:36;9.10;1.00
16388;DHT22;8303;53.446;9.988;2023-02-12T10:44:04;9.10;1.00
16388;DHT22;8303;53.446;9.988;2023-02-12T10:46:33;9.20;1.00
16388;DHT22;8303;53.446;9.988;2023-02-12T10:49:02;9.20;1.00
16388;DHT22;8303;53.446;9.988;2023-02-12T10:51:44;9.20;99.90
16388;DHT22;8303;53.446;9.988;2023-02-12T10:54:38;9.00;99.90
16388;DHT22;8303;53.446;9.988;2023-02-12T10:57:16;9.00;99.90
16388;DHT22;8303;53.446;9.988;2023-02-12T10:59:45;8.90;99.90
16388;DHT22;8303;53.446;9.988;2023-02-12T11:02:21;8.90;99.90
16388;DHT22;8303;53.446;9.988;2023-02-12T11:04:51;9.10;1.00
16388;DHT22;8303;53.446;9.988;2023-02-12T11:07:19;9.20;1.00
16388;DHT22;8303;53.446;9.988;2023-02-12T11:09:48;9.20;99.90
16388;DHT22;8303;53.446;9.988;2023-02-12T11:12:33;9.20;99.90
16388;DHT22;8303;53.446;9.988;2023-02-12T11:15:04;9.20;99.90
16388;DHT22;8303;53.446;9.988;2023-02-12T11:17:35;9.20;99.90
16388;DHT22;8303;53.446;9.988;2023-02-12T11:22:58;9.10;99.90
16388;DHT22;8303;53.446;9.988;2023-02-12T11:25:27;9.10;99.90
16388;DHT22;8303;53.446;9.988;2023-02-12T11:28:15;9.10;99.90
16388;DHT22;8303;53.446;9.988;2023-02-12T11:30:50;9.20;99.90
16388;DHT22;8303;53.446;9.988;2023-02-12T11:33:29;9.30;99.90
16388;DHT22;8303;53.446;9.988;2023-02-12T11:36:00;9.20;99.90
16388;DHT22;8303;53.446;9.988;2023-02-12T11:38:31;9.20;99.90
16388;DHT22;8303;53.446;9.988;2023-02-12T11:41:05;9.30;99.90
16388;DHT22;8303;53.446;9.988;2023-02-12T11:43:34;9.20;1.00
16388;DHT22;8303;53.446;9.988;2023-02-12T11:46:05;9.20;99.90
16388;DHT22;8303;53.446;9.988;2023-02-12T11:48:34;9.30;99.90
16388;DHT22;8303;53.446;9.988;2023-02-12T11:51:06;9.40;72.00
16388;DHT22;8303;53.446;9.988;2023-02-12T11:53:36;9.40;1.00
16388;DHT22;8303;53.446;9.988;2023-02-12T11:56:07;9.30;1.00
16388;DHT22;8303;53.446;9.988;2023-02-12T12:01:17;9.40;1.00
16388;DHT22;8303;53.446;9.988;2023-02-12T12:03:51;9.50;31.60
16388;DHT22;8303;53.446;9.988;2023-02-12T12:06:26;9.50;1.00
16388;DHT22;8303;53.446;9.988;2023-02-12T12:08:59;9.70;99.90
16388;DHT22;8303;53.446;9.988;2023-02-12T12:11:33;9.80;1.00
16388;DHT22;8303;53.446;9.988;2023-02-12T12:14:09;9.90;1.00
16388;DHT22;8303;53.446;9.988;2023-02-12T12:16:43;9.90;1.00
16388;DHT22;8303;53.446;9.988;2023-02-12T12:19:36;10.10;1.00
16388;DHT22;8303;53.446;9.988;2023-02-12T12:22:39;9.90;99.90
16388;DHT22;8303;53.446;9.988;2023-02-12T12:25:15;9.80;99.90
16388;DHT22;8303;53.446;9.988;2023-02-12T12:27:54;9.80;1.00
16388;DHT22;8303;53.446;9.988;2023-02-12T12:33:42;9.70;1.00
16388;DHT22;8303;53.446;9.988;2023-02-12T12:39:26;9.70;1.00
16388;DHT22;8303;53.446;9.988;2023-02-12T12:45:01;9.70;1.00
16388;DHT22;8303;53.446;9.988;2023-02-12T12:47:36;9.70;1.00
16388;DHT22;8303;53.446;9.988;2023-02-12T12:50:26;9.70;9.50
16388;DHT22;8303;53.446;9.988;2023-02-12T12:53:10;9.70;85.70
16388;DHT22;8303;53.446;9.988;2023-02-12T12:58:41;9.60;99.90
16388;DHT22;8303;53.446;9.988;2023-02-12T13:04:25;9.80;53.80
16388;DHT22;8303;53.446;9.988;2023-02-12T13:07:12;9.80;29.60
16388;DHT22;8303;53.446;9.988;2023-02-12T13:10:12;9.80;1.00
16388;DHT22;8303;53.446;9.988;2023-02-12T13:13:02;9.80;1.00
16388;DHT22;8303;53.446;9.988;2023-02-12T13:15:36;9.70;1.00
16388;DHT22;8303;53.446;9.988;2023-02-12T13:18:13;9.70;19.10
16388;DHT22;8303;53.446;9.988;2023-02-12T13:20:46;9.70;1.00
16388;DHT22;8303;53.446;9.988;2023-02-12T13:23:16;9.60;1.00
16388;DHT22;8303;53.446;9.988;2023-02-12T13:25:51;9.60;99.90
16388;DHT22;8303;53.446;9.988;2023-02-12T13:28:30;9.50;99.90
16388;DHT22;8303;53.446;9.988;2023-02-12T13:31:01;9.40;99.90
16388;DHT22;8303;53.446;9.988;2023-02-12T13:33:43;9.40;99.90
16388;DHT22;8303;53.446;9.988;2023-02-12T13:36:12;9.50;1.00
16388;DHT22;8303;53.446;9.988;2023-02-12T13:38:44;9.50;1.00
16388;DHT22;8303;53.446;9.988;2023-02-12T13:41:12;9.40;1.00
16388;DHT22;8303;53.446;9.988;2023-02-12T13:43:58;9.30;1.00
16388;DHT22;8303;53.446;9.988;2023-02-12T13:46:33;9.20;1.00
16388;DHT22;8303;53.446;9.988;2023-02-12T13:49:11;9.10;1.00
16388;DHT22;8303;53.446;9.988;2023-02-12T13:51:45;9.00;1.00
16388;DHT22;8303;53.446;9.988;2023-02-12T13:54:40;9.10;1.00
16388;DHT22;8303;53.446;9.988;2023-02-12T13:57:13;9.10;1.00
16388;DHT22;8303;53.446;9.988;2023-02-12T13:59:45;9.10;1.00
16388;DHT22;8303;53.446;9.988;2023-02-12T14:02:41;9.00;1.00
16388;DHT22;8303;53.446;9.988;2023-02-12T14:05:28;9.00;1.00
16388;DHT22;8303;53.446;9.988;2023-02-12T14:08:02;8.90;1.00
16388;DHT22;8303;53.446;9.988;2023-02-12T14:10:33;8.90;1.00
16388;DHT22;8303;53.446;9.988;2023-02-12T14:13:20;8.90;1.00
16388;DHT22;8303;53.446;9.988;2023-02-12T14:15:50;9.00;1.00
16388;DHT22;8303;53.446;9.988;2023-02-12T14:18:23;9.00;1.00
16388;DHT22;8303;53.446;9.988;2023-02-12T14:33:24;8.90;1.00
16388;DHT22;8303;53.446;9.988;2023-02-12T14:36:19;9.00;1.00
16388;DHT22;8303;53.446;9.988;2023-02-12T14:39:28;9.00;1.00
16388;DHT22;8303;53.446;9.988;2023-02-12T14:45:01;8.90;1.00
16388;DHT22;8303;53.446;9.988;2023-02-12T14:47:49;8.80;1.00
16388;DHT22;8303;53.446;9.988;2023-02-12T14:50:25;8.90;1.00
16388;DHT22;8303;53.446;9.988;2023-02-12T14:52:59;8.90;1.00
16388;DHT22;8303;53.446;9.988;2023-02-12T14:55:27;8.90;1.00
16388;DHT22;8303;53.446;9.988;2023-02-12T14:57:58;8.90;1.00
16388;DHT22;8303;53.446;9.988;2023-02-12T15:00:29;8.90;1.00
16388;DHT22;8303;53.446;9.988;2023-02-12T15:03:00;9.00;1.00
16388;DHT22;8303;53.446;9.988;2023-02-12T15:05:32;8.90;1.00
16388;DHT22;8303;53.446;9.988;2023-02-12T15:08:04;8.90;1.00
16388;DHT22;8303;53.446;9.988;2023-02-12T15:10:36;8.90;1.00
16388;DHT22;8303;53.446;9.988;2023-02-12T15:13:12;8.90;1.00
16388;DHT22;8303;53.446;9.988;2023-02-12T15:15:46;8.90;1.00
16388;DHT22;8303;53.446;9.988;2023-02-12T15:18:21;8.90;1.00
16388;DHT22;8303;53.446;9.988;2023-02-12T15:20:55;8.80;1.00
16388;DHT22;8303;53.446;9.988;2023-02-12T15:23:37;8.80;1.00
16388;DHT22;8303;53.446;9.988;2023-02-12T15:26:05;8.80;1.00
16388;DHT22;8303;53.446;9.988;2023-02-12T15:28:33;8.70;1.00
16388;DHT22;8303;53.446;9.988;2023-02-12T15:31:04;8.70;1.00
16388;DHT22;8303;53.446;9.988;2023-02-12T15:33:38;8.70;1.00
16388;DHT22;8303;53.446;9.988;2023-02-12T15:36:09;8.70;1.00
16388;DHT22;8303;53.446;9.988;2023-02-12T15:38:38;8.70;1.00
16388;DHT22;8303;53.446;9.988;2023-02-12T15:41:07;8.80;1.00
16388;DHT22;8303;53.446;9.988;2023-02-12T15:43:39;8.70;1.00
16388;DHT22;8303;53.446;9.988;2023-02-12T15:46:15;8.70;1.00
16388;DHT22;8303;53.446;9.988;2023-02-12T15:48:42;8.60;1.00
16388;DHT22;8303;53.446;9.988;2023-02-12T15:51:15;8.60;1.00
16388;DHT22;8303;53.446;9.988;2023-02-12T15:53:43;8.60;1.00
16388;DHT22;8303;53.446;9.988;2023-02-12T15:56:13;8.60;1.00
16388;DHT22;8303;53.446;9.988;2023-02-12T15:58:45;8.50;1.00
16388;DHT22;8303;53.446;9.988;2023-02-12T16:01:15;8.50;1.00
16388;DHT22;8303;53.446;9.988;2023-02-12T16:03:42;8.50;1.00
16388;DHT22;8303;53.446;9.988;2023-02-12T16:06:11;8.40;1.00
16388;DHT22;8303;53.446;9.988;2023-02-12T16:08:43;8.50;1.00
16388;DHT22;8303;53.446;9.988;2023-02-12T16:11:11;8.40;1.00
16388;DHT22;8303;53.446;9.988;2023-02-12T16:13:42;8.40;1.00
16388;DHT22;8303;53.446;9.988;2023-02-12T16:16:28;8.40;1.00
16388;DHT22;8303;53.446;9.988;2023-02-12T16:19:17;8.30;1.00
16388;DHT22;8303;53.446;9.988;2023-02-12T16:21:47;8.30;1.00
16388;DHT22;8303;53.446;9.988;2023-02-12T16:24:21;8.40;1.00
16388;DHT22;8303;53.446;9.988;2023-02-12T16:26:51;8.40;1.00
16388;DHT22;8303;53.446;9.988;2023-02-12T16:29:18;8.40;1.00
16388;DHT22;8303;53.446;9.988;2023-02-12T16:31:57;8.40;1.00
16388;DHT22;8303;53.446;9.988;2023-02-12T16:34:33;8.30;1.00
16388;DHT22;8303;53.446;9.988;2023-02-12T16:37:03;8.30;1.00
16388;DHT22;8303;53.446;9.988;2023-02-12T16:40:21;8.20;1.00
16388;DHT22;8303;53.446;9.988;2023-02-12T16:43:02;8.20;1.00
16388;DHT22;8303;53.446;9.988;2023-02-12T16:45:42;8.10;1.00
16388;DHT22;8303;53.446;9.988;2023-02-12T16:48:16;8.10;1.00
16388;DHT22;8303;53.446;9.988;2023-02-12T16:50:46;8.10;1.00
16388;DHT22;8303;53.446;9.988;2023-02-12T16:53:33;8.10;1.00
16388;DHT22;8303;53.446;9.988;2023-02-12T16:56:01;8.10;1.00
16388;DHT22;8303;53.446;9.988;2023-02-12T16:58:28;8.10;1.00
16388;DHT22;8303;53.446;9.988;2023-02-12T17:00:57;8.00;1.00
16388;DHT22;8303;53.446;9.988;2023-02-12T17:03:27;8.00;1.00
16388;DHT22;8303;53.446;9.988;2023-02-12T17:05:54;8.00;1.00
16388;DHT22;8303;53.446;9.988;2023-02-12T17:08:22;8.00;1.00
16388;DHT22;8303;53.446;9.988;2023-02-12T17:10:51;8.00;1.00
16388;DHT22;8303;53.446;9.988;2023-02-12T17:13:18;8.00;1.00
16388;DHT22;8303;53.446;9.988;2023-02-12T17:15:50;8.00;1.00
16388;DHT22;8303;53.446;9.988;2023-02-12T17:18:18;7.90;1.00
16388;DHT22;8303;53.446;9.988;2023-02-12T17:20:48;7.90;1.00
16388;DHT22;8303;53.446;9.988;2023-02-12T17:23:16;7.90;1.00
16388;DHT22;8303;53.446;9.988;2023-02-12T17:25:43;7.90;1.00
16388;DHT22;8303;53.446;9.988;2023-02-12T17:28:11;7.90;1.00
16388;DHT22;8303;53.446;9.988;2023-02-12T17:30:38;7.90;1.00
16388;DHT22;8303;53.446;9.988;2023-02-12T17:33:05;7.90;1.00
16388;DHT22;8303;53.446;9.988;2023-02-12T17:35:32;7.80;1.00
16388;DHT22;8303;53.446;9.988;2023-02-12T17:37:59;7.80;1.00
16388;DHT22;8303;53.446;9.988;2023-02-12T17:40:26;7.80;1.00
16388;DHT22;8303;53.446;9.988;2023-02-12T17:42:53;7.80;1.00
16388;DHT22;8303;53.446;9.988;2023-02-12T17:45:21;7.80;1.00
16388;DHT22;8303;53.446;9.988;2023-02-12T17:47:48;7.80;1.00
16388;DHT22;8303;53.446;9.988;2023-02-12T17:50:15;7.80;1.00
16388;DHT22;8303;53.446;9.988;2023-02-12T17:52:42;7.80;1.00
16388;DHT22;8303;53.446;9.988;2023-02-12T17:55:10;7.80;1.00
16388;DHT22;8303;53.446;9.988;2023-02-12T17:57:38;7.80;1.00
16388;DHT22;8303;53.446;9.988;2023-02-12T18:00:07;7.80;1.00
16388;DHT22;8303;53.446;9.988;2023-02-12T18:02:36;7.80;1.00
16388;DHT22;8303;53.446;9.988;2023-02-12T18:05:03;7.70;1.00
16388;DHT22;8303;53.446;9.988;2023-02-12T18:07:32;7.70;1.00
16388;DHT22;8303;53.446;9.988;2023-02-12T18:09:59;7.70;1.00
16388;DHT22;8303;53.446;9.988;2023-02-12T18:12:25;7.80;1.00
16388;DHT22;8303;53.446;9.988;2023-02-12T18:14:55;7.80;1.00
16388;DHT22;8303;53.446;9.988;2023-02-12T18:17:22;7.80;1.00
16388;DHT22;8303;53.446;9.988;2023-02-12T18:19:51;7.70;1.00
16388;DHT22;8303;53.446;9.988;2023-02-12T18:22:18;7.70;1.00
16388;DHT22;8303;53.446;9.988;2023-02-12T18:24:45;7.70;1.00
16388;DHT22;8303;53.446;9.988;2023-02-12T18:27:13;7.70;1.00
16388;DHT22;8303;53.446;9.988;2023-02-12T18:29:40;7.70;1.00
16388;DHT22;8303;53.446;9.988;2023-02-12T18:32:07;7.70;1.00
16388;DHT22;8303;53.446;9.988;2023-02-12T18:34:39;7.70;1.00
16388;DHT22;8303;53.446;9.988;2023-02-12T18:37:08;7.70;1.00
16388;DHT22;8303;53.446;9.988;2023-02-12T18:39:35;7.70;1.00
16388;DHT22;8303;53.446;9.988;2023-02-12T18:42:02;7.60;1.00
16388;DHT22;8303;53.446;9.988;2023-02-12T18:44:29;7.60;1.00
16388;DHT22;8303;53.446;9.988;2023-02-12T18:46:56;7.60;1.00
16388;DHT22;8303;53.446;9.988;2023-02-12T18:49:24;7.60;1.00
16388;DHT22;8303;53.446;9.988;2023-02-12T18:51:51;7.60;1.00
16388;DHT22;8303;53.446;9.988;2023-02-12T18:54:19;7.60;1.00
16388;DHT22;8303;53.446;9.988;2023-02-12T18:56:50;7.60;1.00
16388;DHT22;8303;53.446;9.988;2023-02-12T18:59:17;7.60;1.00
16388;DHT22;8303;53.446;9.988;2023-02-12T19:01:45;7.60;1.00
16388;DHT22;8303;53.446;9.988;2023-02-12T19:04:14;7.60;1.00
16388;DHT22;8303;53.446;9.988;2023-02-12T19:06:43;7.60;1.00
16388;DHT22;8303;53.446;9.988;2023-02-12T19:09:11;7.60;1.00
16388;DHT22;8303;53.446;9.988;2023-02-12T19:11:42;7.60;1.00
16388;DHT22;8303;53.446;9.988;2023-02-12T19:14:11;7.60;1.00
16388;DHT22;8303;53.446;9.988;2023-02-12T19:16:38;7.60;1.00
16388;DHT22;8303;53.446;9.988;2023-02-12T19:19:05;7.60;1.00
16388;DHT22;8303;53.446;9.988;2023-02-12T19:21:33;7.60;1.00
16388;DHT22;8303;53.446;9.988;2023-02-12T19:24:01;7.60;1.00
16388;DHT22;8303;53.446;9.988;2023-02-12T19:26:29;7.60;1.00
16388;DHT22;8303;53.446;9.988;2023-02-12T19:28:58;7.60;1.00
16388;DHT22;8303;53.446;9.988;2023-02-12T19:31:30;7.70;1.00
16388;DHT22;8303;53.446;9.988;2023-02-12T19:34:00;7.60;1.00
16388;DHT22;8303;53.446;9.988;2023-02-12T19:36:29;7.60;1.00
16388;DHT22;8303;53.446;9.988;2023-02-12T19:38:58;7.60;1.00
16388;DHT22;8303;53.446;9.988;2023-02-12T19:41:27;7.70;1.00
16388;DHT22;8303;53.446;9.988;2023-02-12T19:43:55;7.60;1.00
16388;DHT22;8303;53.446;9.988;2023-02-12T19:46:25;7.60;1.00
16388;DHT22;8303;53.446;9.988;2023-02-12T19:48:54;7.70;1.00
16388;DHT22;8303;53.446;9.988;2023-02-12T19:51:22;7.70;1.00
16388;DHT22;8303;53.446;9.988;2023-02-12T19:53:51;7.70;1.00
16388;DHT22;8303;53.446;9.988;2023-02-12T19:56:18;7.70;1.00
16388;DHT22;8303;53.446;9.988;2023-02-12T19:58:45;7.60;1.00
16388;DHT22;8303;53.446;9.988;2023-02-12T20:01:14;7.70;1.00
16388;DHT22;8303;53.446;9.988;2023-02-12T20:03:43;7.60;1.00
16388;DHT22;8303;53.446;9.988;2023-02-12T20:06:12;7.60;1.00
16388;DHT22;8303;53.446;9.988;2023-02-12T20:08:40;7.60;1.00
16388;DHT22;8303;53.446;9.988;2023-02-12T20:11:12;7.60;1.00
16388;DHT22;8303;53.446;9.988;2023-02-12T20:13:39;7.60;1.00
16388;DHT22;8303;53.446;9.988;2023-02-12T20:16:08;7.60;1.00
16388;DHT22;8303;53.446;9.988;2023-02-12T20:18:35;7.70;1.00
16388;DHT22;8303;53.446;9.988;2023-02-12T20:21:09;7.70;1.00
16388;DHT22;8303;53.446;9.988;2023-02-12T20:23:36;7.70;1.00
16388;DHT22;8303;53.446;9.988;2023-02-12T20:26:04;7.70;1.00
16388;DHT22;8303;53.446;9.988;2023-02-12T20:28:31;7.70;1.00
16388;DHT22;8303;53.446;9.988;2023-02-12T20:30:59;7.70;1.00
16388;DHT22;8303;53.446;9.988;2023-02-12T20:33:32;7.70;1.00
16388;DHT22;8303;53.446;9.988;2023-02-12T20:35:59;7.70;1.00
16388;DHT22;8303;53.446;9.988;2023-02-12T20:38:27;7.60;1.00
16388;DHT22;8303;53.446;9.988;2023-02-12T20:40:54;7.70;1.00
16388;DHT22;8303;53.446;9.988;2023-02-12T20:43:21;7.70;1.00
16388;DHT22;8303;53.446;9.988;2023-02-12T20:45:48;7.70;1.00
16388;DHT22;8303;53.446;9.988;2023-02-12T20:48:15;7.70;1.00
16388;DHT22;8303;53.446;9.988;2023-02-12T20:50:42;7.70;1.00
16388;DHT22;8303;53.446;9.988;2023-02-12T20:53:09;7.70;1.00
16388;DHT22;8303;53.446;9.988;2023-02-12T20:55:37;7.70;1.00
16388;DHT22;8303;53.446;9.988;2023-02-12T20:58:04;7.70;1.00
16388;DHT22;8303;53.446;9.988;2023-02-12T21:00:31;7.70;1.00
16388;DHT22;8303;53.446;9.988;2023-02-12T21:02:58;7.70;1.00
16388;DHT22;8303;53.446;9.988;2023-02-12T21:05:28;7.70;1.00
16388;DHT22;8303;53.446;9.988;2023-02-12T21:07:56;7.60;1.00
16388;DHT22;8303;53.446;9.988;2023-02-12T21:10:23;7.60;1.00
16388;DHT22;8303;53.446;9.988;2023-02-12T21:12:51;7.70;1.00
16388;DHT22;8303;53.446;9.988;2023-02-12T21:15:18;7.60;1.00
16388;DHT22;8303;53.446;9.988;2023-02-12T21:17:45;7.70;1.00
16388;DHT22;8303;53.446;9.988;2023-02-12T21:20:12;7.70;1.00
16388;DHT22;8303;53.446;9.988;2023-02-12T21:22:38;7.70;1.00
16388;DHT22;8303;53.446;9.988;2023-02-12T21:25:05;7.70;1.00
16388;DHT22;8303;53.446;9.988;2023-02-12T21:27:32;7.70;1.00
